SondeTracker

Meteorological Radiosondes Database

Operations

Sounding was ended - last measurement: 2023-03-30 19:51:27z

MAP
About Radiosonde

Number: D23001811 (23001811)

Launch Site: Lake Charles [LA] (US)

Type: DFM17

AUX: NO

Frequency: 404.411 MHz

Max Speed: 233 km/h at 13195 m

Average Speed: 82.56 km/h

Max Altitude: 32897 m

Average Ascent Speed: 5.46 m/s

Average Descent Speed: 10.90 m/s

Status: UNKNOWN

Status Changes
Launch Site Type AUX Frequency Status Finder Landing Point Description Changes made by
APRS Statistics

Received Frames: 232

First Frame [UTC]: 2023-03-30 17:49:12z

Last Frame [UTC]: 2023-03-30 19:51:27z

Receivers: N5LXN

Flight Time: 02:02:15 h

Distance From First Measurement: 155.92 km

Nearest City: New Iberia [LA] (US) [36.74 km]

Nearest Hunter: KD5QZG [51.50 km]

Ground Altitude: 2 m

Distance from QTH: 0.00 km

APRS Data
Receiver Number Date/Time [UTC] φ λ Course [°] Speed [km/h] Altitude [m] Description
N5LXND230018112023-03-30 19:51:2730.1918-91.505395544785Clb=-5.0m/s t=-5.1C h=-1.0% p=-1.0hPa 404.411 MHz Type=DFM17 ser=23001811 Radiosonde
N5LXND230018112023-03-30 19:50:5630.1918-91.507782524875Clb=-5.2m/s t=-5.9C h=-1.0% p=-1.0hPa 404.411 MHz Type=DFM17 ser=23001811 Radiosonde
N5LXND230018112023-03-30 19:50:2530.1917-91.51172335012Clb=-5.5m/s t=-6.0C h=-1.0% p=-1.0hPa 404.411 MHz Type=DFM17 ser=23001811 Radiosonde
N5LXND230018112023-03-30 19:49:5430.1912-91.514770445173Clb=-5.0m/s t=-7.4C h=-1.0% p=-1.0hPa 404.411 MHz Type=DFM17 ser=23001811 Radiosonde
N5LXND230018112023-03-30 19:48:2130.1887-91.530586635774Clb=-5.5m/s t=-10.9C h=-1.0% p=-1.0hPa 404.411 MHz Type=DFM17 ser=23001811 Radiosonde
N5LXND230018112023-03-30 19:47:5030.1886-91.532682505846Clb=-5.6m/s t=-11.4C h=-1.0% p=-1.0hPa 404.411 MHz Type=DFM17 ser=23001811 Radiosonde
N5LXND230018112023-03-30 19:47:1930.1879-91.538488786021Clb=-5.4m/s t=-12.0C h=-1.0% p=-1.0hPa 404.411 MHz Type=DFM17 ser=23001811 Radiosonde
N5LXND230018112023-03-30 19:46:4830.1881-91.544788806200Clb=-5.7m/s t=-13.0C h=-1.0% p=-1.0hPa 404.411 MHz Type=DFM17 ser=23001811 Radiosonde
N5LXND230018112023-03-30 19:46:1730.188-91.552190816390Clb=-5.5m/s t=-14.6C h=-1.0% p=-1.0hPa 404.411 MHz Type=DFM17 ser=23001811 Radiosonde
N5LXND230018112023-03-30 19:45:4630.1874-91.558485786567Clb=-5.9m/s t=-15.9C h=-1.0% p=-1.0hPa 404.411 MHz Type=DFM17 ser=23001811 Radiosonde
N5LXND230018112023-03-30 19:45:1530.1874-91.564396696745Clb=-5.9m/s t=-273.0C h=-1.0% p=-1.0hPa 404.411 MHz Type=DFM17 ser=23001811 Radiosonde
N5LXND230018112023-03-30 19:43:1030.1905-91.5975104767695Clb=-6.7m/s t=-23.8C h=-1.0% p=-1.0hPa 404.411 MHz Type=DFM17 ser=23001811 Radiosonde
N5LXND230018112023-03-30 19:42:3930.1907-91.5982101857714Clb=-6.6m/s t=-23.9C h=-1.0% p=-1.0hPa 404.411 MHz Type=DFM17 ser=23001811 Radiosonde
N5LXND230018112023-03-30 19:42:0830.1931-91.613199948104Clb=-6.7m/s t=-27.0C h=-1.0% p=-1.0hPa 404.411 MHz Type=DFM17 ser=23001811 Radiosonde
N5LXND230018112023-03-30 19:41:3730.1935-91.617791898220Clb=-6.6m/s t=-27.6C h=-1.0% p=-1.0hPa 404.411 MHz Type=DFM17 ser=23001811 Radiosonde
N5LXND230018112023-03-30 19:41:0630.1939-91.621991948326Clb=-6.5m/s t=-28.6C h=-1.0% p=-1.0hPa 404.411 MHz Type=DFM17 ser=23001811 Radiosonde
N5LXND230018112023-03-30 19:40:3530.1943-91.632495938583Clb=-6.7m/s t=-30.5C h=-1.0% p=-1.0hPa 404.411 MHz Type=DFM17 ser=23001811 Radiosonde
N5LXND230018112023-03-30 19:40:0430.1945-91.640990968783Clb=-6.8m/s t=-32.4C h=-1.0% p=-1.0hPa 404.411 MHz Type=DFM17 ser=23001811 Radiosonde
N5LXND230018112023-03-30 19:39:3330.1954-91.6562971049152Clb=-6.9m/s t=-35.2C h=-1.0% p=-1.0hPa 404.411 MHz Type=DFM17 ser=23001811 Radiosonde
N5LXND230018112023-03-30 19:39:0230.1955-91.6568961069165Clb=-6.6m/s t=-35.3C h=-1.0% p=-1.0hPa 404.411 MHz Type=DFM17 ser=23001811 Radiosonde
N5LXND230018112023-03-30 19:38:3130.1964-91.6659951099386Clb=-6.7m/s t=-37.2C h=-1.0% p=-1.0hPa 404.411 MHz Type=DFM17 ser=23001811 Radiosonde
N5LXND230018112023-03-30 19:38:0030.1974-91.6756971159606Clb=-6.8m/s t=-38.9C h=-1.0% p=-1.0hPa 404.411 MHz Type=DFM17 ser=23001811 Radiosonde
N5LXND230018112023-03-30 19:37:2930.1983-91.6875911199870Clb=-7.5m/s t=-41.1C h=-1.0% p=-1.0hPa 404.411 MHz Type=DFM17 ser=23001811 Radiosonde
N5LXND230018112023-03-30 19:36:5830.1991-91.70289212210193Clb=-6.9m/s t=-43.5C h=-1.0% p=-1.0hPa 404.411 MHz Type=DFM17 ser=23001811 Radiosonde
N5LXND230018112023-03-30 19:36:2730.1993-91.70689213010271Clb=-6.6m/s t=-43.8C h=-1.0% p=-1.0hPa 404.411 MHz Type=DFM17 ser=23001811 Radiosonde
N5LXND230018112023-03-30 19:35:5530.2011-91.720510013710526Clb=-7.2m/s t=-45.7C h=-1.0% p=-1.0hPa 404.411 MHz Type=DFM17 ser=23001811 Radiosonde
N5LXND230018112023-03-30 19:35:2530.2023-91.7319514410721Clb=-7.2m/s t=-47.2C h=-1.0% p=-1.0hPa 404.411 MHz Type=DFM17 ser=23001811 Radiosonde
N5LXND230018112023-03-30 19:34:5330.2034-91.74419314810952Clb=-6.8m/s t=-48.9C h=-1.0% p=-1.0hPa 404.411 MHz Type=DFM17 ser=23001811 Radiosonde
N5LXND230018112023-03-30 19:34:2230.2041-91.75759115911170Clb=-7.4m/s t=-50.3C h=-1.0% p=-1.0hPa 404.411 MHz Type=DFM17 ser=23001811 Radiosonde
N5LXND230018112023-03-30 19:33:5130.2046-91.7729216111410Clb=-7.8m/s t=-52.3C h=-1.0% p=-1.0hPa 404.411 MHz Type=DFM17 ser=23001811 Radiosonde
N5LXND230018112023-03-30 19:33:2030.2051-91.78599016311640Clb=-7.6m/s t=-54.4C h=-1.0% p=-1.0hPa 404.411 MHz Type=DFM17 ser=23001811 Radiosonde
N5LXND230018112023-03-30 19:32:4930.2056-91.80049116711881Clb=-8.4m/s t=-56.4C h=-1.0% p=-1.0hPa 404.411 MHz Type=DFM17 ser=23001811 Radiosonde
N5LXND230018112023-03-30 19:32:1830.2068-91.81759717812165Clb=-7.9m/s t=-58.2C h=-1.0% p=-1.0hPa 404.411 MHz Type=DFM17 ser=23001811 Radiosonde
N5LXND230018112023-03-30 19:31:4730.2084-91.83149618912384Clb=-7.9m/s t=-59.5C h=-1.0% p=-1.0hPa 404.411 MHz Type=DFM17 ser=23001811 Radiosonde
N5LXND230018112023-03-30 19:31:1630.2106-91.848410219612640Clb=-8.3m/s t=-60.1C h=-1.0% p=-1.0hPa 404.411 MHz Type=DFM17 ser=23001811 Radiosonde
N5LXND230018112023-03-30 19:30:4530.214-91.865210120612907Clb=-8.8m/s t=-60.2C h=-1.0% p=-1.0hPa 404.411 MHz Type=DFM17 ser=23001811 Radiosonde
N5LXND230018112023-03-30 19:30:1430.2168-91.88459822613174Clb=-8.8m/s t=-60.8C h=-1.0% p=-1.0hPa 404.411 MHz Type=DFM17 ser=23001811 Radiosonde
N5LXND230018112023-03-30 19:29:4330.2196-91.9059822413451Clb=-8.8m/s t=-62.7C h=-1.0% p=-1.0hPa 404.411 MHz Type=DFM17 ser=23001811 Radiosonde
N5LXND230018112023-03-30 19:29:1230.2223-91.923710021313714Clb=-9.2m/s t=-64.3C h=-1.0% p=-1.0hPa 404.411 MHz Type=DFM17 ser=23001811 Radiosonde
N5LXND230018112023-03-30 19:28:4130.225-91.94169718913986Clb=-9.0m/s t=-65.1C h=-1.0% p=-1.0hPa 404.411 MHz Type=DFM17 ser=23001811 Radiosonde
N5LXND230018112023-03-30 19:28:1030.2264-91.95559613014260Clb=-9.3m/s t=-61.0C h=-1.0% p=-1.0hPa 404.411 MHz Type=DFM17 ser=23001811 Radiosonde
N5LXND230018112023-03-30 19:27:3930.2276-91.96639610414541Clb=-8.9m/s t=-62.3C h=-1.0% p=-1.0hPa 404.411 MHz Type=DFM17 ser=23001811 Radiosonde
N5LXND230018112023-03-30 19:27:0730.2282-91.97669312414839Clb=-9.5m/s t=-64.1C h=-1.0% p=-1.0hPa 404.411 MHz Type=DFM17 ser=23001811 Radiosonde
N5LXND230018112023-03-30 19:26:3630.2288-91.98779212215131Clb=-9.2m/s t=-64.9C h=-1.0% p=-1.0hPa 404.411 MHz Type=DFM17 ser=23001811 Radiosonde
N5LXND230018112023-03-30 19:26:0530.2285-91.99818111315423Clb=-9.5m/s t=-66.0C h=-1.0% p=-1.0hPa 404.411 MHz Type=DFM17 ser=23001811 Radiosonde
N5LXND230018112023-03-30 19:25:3430.2271-92.00868511915718Clb=-9.9m/s t=-64.1C h=-1.0% p=-1.0hPa 404.411 MHz Type=DFM17 ser=23001811 Radiosonde
N5LXND230018112023-03-30 19:25:0330.2264-92.01898310916027Clb=-9.6m/s t=-65.2C h=-1.0% p=-1.0hPa 404.411 MHz Type=DFM17 ser=23001811 Radiosonde
N5LXND230018112023-03-30 19:24:3230.2247-92.02817710616323Clb=-10.0m/s t=-67.1C h=-1.0% p=-1.0hPa 404.411 MHz Type=DFM17 ser=23001811 Radiosonde
N5LXND230018112023-03-30 19:24:0130.2227-92.0368728016641Clb=-10.3m/s t=-66.9C h=-1.0% p=-1.0hPa 404.411 MHz Type=DFM17 ser=23001811 Radiosonde
N5LXND230018112023-03-30 19:23:3030.2206-92.0446729416969Clb=-10.7m/s t=-68.9C h=-1.0% p=-1.0hPa 404.411 MHz Type=DFM17 ser=23001811 Radiosonde
N5LXND230018112023-03-30 19:22:5930.2195-92.0526898717305Clb=-11.2m/s t=-69.0C h=-1.0% p=-1.0hPa 404.411 MHz Type=DFM17 ser=23001811 Radiosonde
N5LXND230018112023-03-30 19:22:2830.2192-92.0593776717662Clb=-10.9m/s t=-68.9C h=-1.0% p=-1.0hPa 404.411 MHz Type=DFM17 ser=23001811 Radiosonde
N5LXND230018112023-03-30 19:21:5730.2181-92.0639625618000Clb=-11.4m/s t=-68.9C h=-1.0% p=-1.0hPa 404.411 MHz Type=DFM17 ser=23001811 Radiosonde
N5LXND230018112023-03-30 19:21:2630.2163-92.0684615418366Clb=-12.1m/s t=-67.9C h=-1.0% p=-1.0hPa 404.411 MHz Type=DFM17 ser=23001811 Radiosonde
N5LXND230018112023-03-30 19:20:5530.2146-92.0728655418752Clb=-12.3m/s t=-69.5C h=-1.0% p=-1.0hPa 404.411 MHz Type=DFM17 ser=23001811 Radiosonde
N5LXND230018112023-03-30 19:20:2430.2138-92.0773854319135Clb=-12.2m/s t=-68.9C h=-1.0% p=-1.0hPa 404.411 MHz Type=DFM17 ser=23001811 Radiosonde
N5LXND230018112023-03-30 19:19:5330.2132-92.0817915019528Clb=-13.5m/s t=-69.4C h=-1.0% p=-1.0hPa 404.411 MHz Type=DFM17 ser=23001811 Radiosonde
N5LXND230018112023-03-30 19:19:2230.2126-92.0851604419928Clb=-13.3m/s t=-69.4C h=-1.0% p=-1.0hPa 404.411 MHz Type=DFM17 ser=23001811 Radiosonde
N5LXND230018112023-03-30 19:18:5130.2115-92.0891943720352Clb=-14.1m/s t=-68.7C h=-1.0% p=-1.0hPa 404.411 MHz Type=DFM17 ser=23001811 Radiosonde
N5LXND230018112023-03-30 19:18:1930.2121-92.09151261920823Clb=-13.9m/s t=-67.4C h=-1.0% p=-1.0hPa 404.411 MHz Type=DFM17 ser=23001811 Radiosonde
N5LXND230018112023-03-30 19:17:4830.2123-92.0933793121229Clb=-15.5m/s t=-64.6C h=-1.0% p=-1.0hPa 404.411 MHz Type=DFM17 ser=23001811 Radiosonde
N5LXND230018112023-03-30 19:17:1730.2138-92.09581391721680Clb=-14.8m/s t=-61.1C h=-1.0% p=-1.0hPa 404.411 MHz Type=DFM17 ser=23001811 Radiosonde
N5LXND230018112023-03-30 19:16:4630.214-92.0958171122164Clb=-16.1m/s t=-61.0C h=-1.0% p=-1.0hPa 404.411 MHz Type=DFM17 ser=23001811 Radiosonde
N5LXND230018112023-03-30 19:16:1530.2136-92.0967332022665Clb=-15.7m/s t=-58.6C h=-1.0% p=-1.0hPa 404.411 MHz Type=DFM17 ser=23001811 Radiosonde
N5LXND230018112023-03-30 19:15:4430.2134-92.09821031723180Clb=-18.0m/s t=-55.9C h=-1.0% p=-1.0hPa 404.411 MHz Type=DFM17 ser=23001811 Radiosonde
N5LXND230018112023-03-30 19:15:1330.2136-92.098996223717Clb=-17.2m/s t=-55.2C h=-1.0% p=-1.0hPa 404.411 MHz Type=DFM17 ser=23001811 Radiosonde
N5LXND230018112023-03-30 19:14:4230.2142-92.0989244624258Clb=-17.0m/s t=-54.4C h=-1.0% p=-1.0hPa 404.411 MHz Type=DFM17 ser=23001811 Radiosonde
N5LXND230018112023-03-30 19:14:1130.2145-92.0988137624841Clb=-17.8m/s t=-53.9C h=-1.0% p=-1.0hPa 404.411 MHz Type=DFM17 ser=23001811 Radiosonde
N5LXND230018112023-03-30 19:13:4030.2146-92.0991184725447Clb=-20.7m/s t=-53.5C h=-1.0% p=-1.0hPa 404.411 MHz Type=DFM17 ser=23001811 Radiosonde
N5LXND230018112023-03-30 19:13:0930.2146-92.099457626069Clb=-21.6m/s t=-52.6C h=-1.0% p=-1.0hPa 404.411 MHz Type=DFM17 ser=23001811 Radiosonde
N5LXND230018112023-03-30 19:12:3830.2145-92.09913481126720Clb=-21.7m/s t=-51.2C h=-1.0% p=-1.0hPa 404.411 MHz Type=DFM17 ser=23001811 Radiosonde
N5LXND230018112023-03-30 19:12:0730.2149-92.10071433027363Clb=-20.4m/s t=-50.4C h=-1.0% p=-1.0hPa 404.411 MHz Type=DFM17 ser=23001811 Radiosonde
N5LXND230018112023-03-30 19:11:3630.2158-92.1014671927977Clb=-20.9m/s t=-48.0C h=-1.0% p=-1.0hPa 404.411 MHz Type=DFM17 ser=23001811 Radiosonde
N5LXND230018112023-03-30 19:11:0530.2154-92.1038512228656Clb=-21.2m/s t=-45.9C h=-1.0% p=-1.0hPa 404.411 MHz Type=DFM17 ser=23001811 Radiosonde
N5LXND230018112023-03-30 19:10:3330.2148-92.10651053929327Clb=-25.1m/s t=-40.8C h=-1.0% p=-1.0hPa 404.411 MHz Type=DFM17 ser=23001811 Radiosonde
N5LXND230018112023-03-30 19:10:0230.2147-92.1111905030074Clb=-26.1m/s t=-39.9C h=-1.0% p=-1.0hPa 404.411 MHz Type=DFM17 ser=23001811 Radiosonde
N5LXND230018112023-03-30 19:09:3130.2144-92.1162815631022Clb=-34.7m/s t=-39.4C h=-1.0% p=-1.0hPa 404.411 MHz Type=DFM17 ser=23001811 Radiosonde
N5LXND230018112023-03-30 19:09:0030.2122-92.1204544632126Clb=-31.9m/s t=-39.2C h=-1.0% p=-1.0hPa 404.411 MHz Type=DFM17 ser=23001811 Radiosonde
N5LXND230018112023-03-30 19:08:2930.2087-92.1258375732897Clb=2.2m/s t=-38.6C h=-1.0% p=-1.0hPa 404.411 MHz Type=DFM17 ser=23001811 Radiosonde
N5LXND230018112023-03-30 19:07:5830.2054-92.1322639832704Clb=9.6m/s t=-39.0C h=-1.0% p=-1.0hPa 404.411 MHz Type=DFM17 ser=23001811 Radiosonde
N5LXND230018112023-03-30 19:07:2230.2015-92.1393224832484Clb=8.0m/s t=-39.9C h=-1.0% p=-1.0hPa 404.411 MHz Type=DFM17 ser=23001811 Radiosonde
N5LXND230018112023-03-30 19:06:5130.1981-92.1446685032291Clb=0.6m/s t=-39.5C h=-1.0% p=-1.0hPa 404.411 MHz Type=DFM17 ser=23001811 Radiosonde
N5LXND230018112023-03-30 19:06:2030.1953-92.1482486732110Clb=9.8m/s t=-39.9C h=-1.0% p=-1.0hPa 404.411 MHz Type=DFM17 ser=23001811 Radiosonde
N5LXND230018112023-03-30 19:05:4930.1926-92.1516125631915Clb=6.0m/s t=-39.9C h=-1.0% p=-1.0hPa 404.411 MHz Type=DFM17 ser=23001811 Radiosonde
N5LXND230018112023-03-30 19:05:1830.1908-92.155718531703Clb=14.0m/s t=-39.5C h=-1.0% p=-1.0hPa 404.411 MHz Type=DFM17 ser=23001811 Radiosonde
N5LXND230018112023-03-30 19:04:4730.189-92.15947010231511Clb=10.1m/s t=-39.4C h=-1.0% p=-1.0hPa 404.411 MHz Type=DFM17 ser=23001811 Radiosonde
N5LXND230018112023-03-30 19:04:1630.1878-92.1643538531299Clb=13.4m/s t=-39.2C h=-1.0% p=-1.0hPa 404.411 MHz Type=DFM17 ser=23001811 Radiosonde
N5LXND230018112023-03-30 19:03:4530.1869-92.1694927031100Clb=2.1m/s t=-39.9C h=-1.0% p=-1.0hPa 404.411 MHz Type=DFM17 ser=23001811 Radiosonde
N5LXND230018112023-03-30 19:03:1430.1866-92.17436230881Clb=3.6m/s t=-39.6C h=-1.0% p=-1.0hPa 404.411 MHz Type=DFM17 ser=23001811 Radiosonde
N5LXND230018112023-03-30 19:02:4330.1866-92.1789557630684Clb=0.2m/s t=-39.5C h=-1.0% p=-1.0hPa 404.411 MHz Type=DFM17 ser=23001811 Radiosonde
N5LXND230018112023-03-30 19:02:1230.186-92.18489211530475Clb=7.0m/s t=-39.8C h=-1.0% p=-1.0hPa 404.411 MHz Type=DFM17 ser=23001811 Radiosonde
N5LXND230018112023-03-30 19:01:4030.1857-92.1904641730280Clb=6.0m/s t=-39.7C h=-1.0% p=-1.0hPa 404.411 MHz Type=DFM17 ser=23001811 Radiosonde
N5LXND230018112023-03-30 19:01:0930.1855-92.195182430084Clb=7.7m/s t=-40.5C h=-1.0% p=-1.0hPa 404.411 MHz Type=DFM17 ser=23001811 Radiosonde
N5LXND230018112023-03-30 19:00:3830.1849-92.2007879429890Clb=5.4m/s t=-40.6C h=-1.0% p=-1.0hPa 404.411 MHz Type=DFM17 ser=23001811 Radiosonde
N5LXND230018112023-03-30 19:00:0730.1843-92.205732429690Clb=11.2m/s t=-41.0C h=-1.0% p=-1.0hPa 404.411 MHz Type=DFM17 ser=23001811 Radiosonde
N5LXND230018112023-03-30 18:59:3630.1839-92.209816129492Clb=6.1m/s t=-41.1C h=-1.0% p=-1.0hPa 404.411 MHz Type=DFM17 ser=23001811 Radiosonde
N5LXND230018112023-03-30 18:59:0530.1848-92.21211911929286Clb=4.7m/s t=-42.2C h=-1.0% p=-1.0hPa 404.411 MHz Type=DFM17 ser=23001811 Radiosonde
N5LXND230018112023-03-30 18:58:3430.1843-92.21561812629086Clb=6.8m/s t=-43.9C h=-1.0% p=-1.0hPa 404.411 MHz Type=DFM17 ser=23001811 Radiosonde
N5LXND230018112023-03-30 18:58:0330.1844-92.2186877628887Clb=10.4m/s t=-45.7C h=-1.0% p=-1.0hPa 404.411 MHz Type=DFM17 ser=23001811 Radiosonde
N5LXND230018112023-03-30 18:57:3230.1838-92.22123313528696Clb=0.8m/s t=-46.0C h=-1.0% p=-1.0hPa 404.411 MHz Type=DFM17 ser=23001811 Radiosonde
N5LXND230018112023-03-30 18:57:0130.1836-92.22251124428508Clb=11.8m/s t=-46.8C h=-1.0% p=-1.0hPa 404.411 MHz Type=DFM17 ser=23001811 Radiosonde
N5LXND230018112023-03-30 18:56:3030.1838-92.2245138728315Clb=3.0m/s t=-46.6C h=-1.0% p=-1.0hPa 404.411 MHz Type=DFM17 ser=23001811 Radiosonde
N5LXND230018112023-03-30 18:55:5930.1842-92.2271166928124Clb=4.3m/s t=-47.0C h=-1.0% p=-1.0hPa 404.411 MHz Type=DFM17 ser=23001811 Radiosonde
N5LXND230018112023-03-30 18:55:2830.1834-92.22911184327912Clb=8.2m/s t=-48.0C h=-1.0% p=-1.0hPa 404.411 MHz Type=DFM17 ser=23001811 Radiosonde
N5LXND230018112023-03-30 18:54:5730.1836-92.22952864327718Clb=3.6m/s t=-49.8C h=-1.0% p=-1.0hPa 404.411 MHz Type=DFM17 ser=23001811 Radiosonde
N5LXND230018112023-03-30 18:54:2630.1852-92.22931214827526Clb=8.8m/s t=-50.3C h=-1.0% p=-1.0hPa 404.411 MHz Type=DFM17 ser=23001811 Radiosonde
N5LXND230018112023-03-30 18:53:5530.1867-92.2304933927338Clb=5.2m/s t=-49.8C h=-1.0% p=-1.0hPa 404.411 MHz Type=DFM17 ser=23001811 Radiosonde
N5LXND230018112023-03-30 18:53:2330.1877-92.2327173727134Clb=4.4m/s t=-49.7C h=-1.0% p=-1.0hPa 404.411 MHz Type=DFM17 ser=23001811 Radiosonde
N5LXND230018112023-03-30 18:52:5230.1879-92.2341615426937Clb=1.1m/s t=-50.5C h=-1.0% p=-1.0hPa 404.411 MHz Type=DFM17 ser=23001811 Radiosonde
N5LXND230018112023-03-30 18:52:2130.1869-92.23422044126746Clb=4.0m/s t=-52.3C h=-1.0% p=-1.0hPa 404.411 MHz Type=DFM17 ser=23001811 Radiosonde
N5LXND230018112023-03-30 18:51:5030.1869-92.2343373926556Clb=3.7m/s t=-51.8C h=-1.0% p=-1.0hPa 404.411 MHz Type=DFM17 ser=23001811 Radiosonde
N5LXND230018112023-03-30 18:51:1930.187-92.23311292626364Clb=0.1m/s t=-51.9C h=-1.0% p=-1.0hPa 404.411 MHz Type=DFM17 ser=23001811 Radiosonde
N5LXND230018112023-03-30 18:50:4830.1873-92.23323313726171Clb=0.3m/s t=-52.9C h=-1.0% p=-1.0hPa 404.411 MHz Type=DFM17 ser=23001811 Radiosonde
N5LXND230018112023-03-30 18:50:1730.1866-92.2335492425993Clb=7.7m/s t=-52.4C h=-1.0% p=-1.0hPa 404.411 MHz Type=DFM17 ser=23001811 Radiosonde
N5LXND230018112023-03-30 18:49:4630.1862-92.23391251525800Clb=3.5m/s t=-52.2C h=-1.0% p=-1.0hPa 404.411 MHz Type=DFM17 ser=23001811 Radiosonde
N5LXND230018112023-03-30 18:49:1530.186-92.2337721725613Clb=0.2m/s t=-53.2C h=-1.0% p=-1.0hPa 404.411 MHz Type=DFM17 ser=23001811 Radiosonde
N5LXND230018112023-03-30 18:48:4430.1868-92.23332803325427Clb=5.4m/s t=-53.2C h=-1.0% p=-1.0hPa 404.411 MHz Type=DFM17 ser=23001811 Radiosonde
N5LXND230018112023-03-30 18:48:1330.1875-92.23372453725230Clb=5.5m/s t=-52.8C h=-1.0% p=-1.0hPa 404.411 MHz Type=DFM17 ser=23001811 Radiosonde
N5LXND230018112023-03-30 18:47:4230.1874-92.2339752025054Clb=7.8m/s t=-52.3C h=-1.0% p=-1.0hPa 404.411 MHz Type=DFM17 ser=23001811 Radiosonde
N5LXND230018112023-03-30 18:47:1130.1872-92.2338811924877Clb=7.2m/s t=-53.2C h=-1.0% p=-1.0hPa 404.411 MHz Type=DFM17 ser=23001811 Radiosonde
N5LXND230018112023-03-30 18:46:4030.1873-92.23371872024702Clb=8.1m/s t=-54.1C h=-1.0% p=-1.0hPa 404.411 MHz Type=DFM17 ser=23001811 Radiosonde
N5LXND230018112023-03-30 18:46:0930.1872-92.23383033124514Clb=9.8m/s t=-53.7C h=-1.0% p=-1.0hPa 404.411 MHz Type=DFM17 ser=23001811 Radiosonde
N5LXND230018112023-03-30 18:45:3830.1873-92.234853124329Clb=3.3m/s t=-54.3C h=-1.0% p=-1.0hPa 404.411 MHz Type=DFM17 ser=23001811 Radiosonde
N5LXND230018112023-03-30 18:45:0730.1874-92.23393401924154Clb=1.9m/s t=-53.5C h=-1.0% p=-1.0hPa 404.411 MHz Type=DFM17 ser=23001811 Radiosonde
N5LXND230018112023-03-30 18:44:3630.1886-92.2342222923968Clb=7.8m/s t=-54.8C h=-1.0% p=-1.0hPa 404.411 MHz Type=DFM17 ser=23001811 Radiosonde
N5LXND230018112023-03-30 18:44:0430.1895-92.2352862023794Clb=3.5m/s t=-55.3C h=-1.0% p=-1.0hPa 404.411 MHz Type=DFM17 ser=23001811 Radiosonde
N5LXND230018112023-03-30 18:43:3330.1894-92.23531301723615Clb=7.5m/s t=-55.0C h=-1.0% p=-1.0hPa 404.411 MHz Type=DFM17 ser=23001811 Radiosonde
N5LXND230018112023-03-30 18:43:0230.1897-92.2356972423429Clb=11.2m/s t=-55.5C h=-1.0% p=-1.0hPa 404.411 MHz Type=DFM17 ser=23001811 Radiosonde
N5LXND230018112023-03-30 18:42:3130.1902-92.23711421323253Clb=3.7m/s t=-56.1C h=-1.0% p=-1.0hPa 404.411 MHz Type=DFM17 ser=23001811 Radiosonde
N5LXND230018112023-03-30 18:42:0030.1906-92.2391152823078Clb=7.8m/s t=-55.1C h=-1.0% p=-1.0hPa 404.411 MHz Type=DFM17 ser=23001811 Radiosonde
N5LXND230018112023-03-30 18:41:2930.1909-92.2406783922902Clb=5.1m/s t=-55.5C h=-1.0% p=-1.0hPa 404.411 MHz Type=DFM17 ser=23001811 Radiosonde
N5LXND230018112023-03-30 18:40:5830.1908-92.2424293022716Clb=0.0m/s t=-59.4C h=-1.0% p=-1.0hPa 404.411 MHz Type=DFM17 ser=23001811 Radiosonde
N5LXND230018112023-03-30 18:40:2730.1905-92.24321992222548Clb=4.9m/s t=-59.2C h=-1.0% p=-1.0hPa 404.411 MHz Type=DFM17 ser=23001811 Radiosonde
N5LXND230018112023-03-30 18:39:5630.1908-92.2439523322388Clb=2.3m/s t=-60.6C h=-1.0% p=-1.0hPa 404.411 MHz Type=DFM17 ser=23001811 Radiosonde
N5LXND230018112023-03-30 18:39:2530.1903-92.2447262422217Clb=6.2m/s t=-61.3C h=-1.0% p=-1.0hPa 404.411 MHz Type=DFM17 ser=23001811 Radiosonde
N5LXND230018112023-03-30 18:38:5430.1897-92.24422882422041Clb=6.6m/s t=-60.5C h=-1.0% p=-1.0hPa 404.411 MHz Type=DFM17 ser=23001811 Radiosonde
N5LXND230018112023-03-30 18:38:2330.1902-92.2436362021866Clb=6.0m/s t=-60.9C h=-1.0% p=-1.0hPa 404.411 MHz Type=DFM17 ser=23001811 Radiosonde
N5LXND230018112023-03-30 18:37:5230.191-92.24441271721701Clb=8.2m/s t=-61.1C h=-1.0% p=-1.0hPa 404.411 MHz Type=DFM17 ser=23001811 Radiosonde
N5LXND230018112023-03-30 18:37:2130.193-92.24661526321528Clb=2.9m/s t=-63.8C h=-1.0% p=-1.0hPa 404.411 MHz Type=DFM17 ser=23001811 Radiosonde
N5LXND230018112023-03-30 18:36:5030.1944-92.24981184321356Clb=8.2m/s t=-64.5C h=-1.0% p=-1.0hPa 404.411 MHz Type=DFM17 ser=23001811 Radiosonde
N5LXND230018112023-03-30 18:36:1930.1943-92.25331203121159Clb=4.1m/s t=-65.0C h=-1.0% p=-1.0hPa 404.411 MHz Type=DFM17 ser=23001811 Radiosonde
N5LXND230018112023-03-30 18:35:4830.1947-92.25511763320999Clb=4.8m/s t=-66.5C h=-1.0% p=-1.0hPa 404.411 MHz Type=DFM17 ser=23001811 Radiosonde
N5LXND230018112023-03-30 18:35:1730.1961-92.25691652420839Clb=6.6m/s t=-67.4C h=-1.0% p=-1.0hPa 404.411 MHz Type=DFM17 ser=23001811 Radiosonde
N5LXND230018112023-03-30 18:34:4530.1971-92.2585104920676Clb=5.2m/s t=-67.2C h=-1.0% p=-1.0hPa 404.411 MHz Type=DFM17 ser=23001811 Radiosonde
N5LXND230018112023-03-30 18:34:1430.1975-92.2603441120519Clb=6.5m/s t=-68.1C h=-1.0% p=-1.0hPa 404.411 MHz Type=DFM17 ser=23001811 Radiosonde
N5LXND230018112023-03-30 18:33:4330.1977-92.2632945220354Clb=8.2m/s t=-68.5C h=-1.0% p=-1.0hPa 404.411 MHz Type=DFM17 ser=23001811 Radiosonde
N5LXND230018112023-03-30 18:33:1230.1973-92.267743720197Clb=3.7m/s t=-68.2C h=-1.0% p=-1.0hPa 404.411 MHz Type=DFM17 ser=23001811 Radiosonde
N5LXND230018112023-03-30 18:32:4130.196-92.271695020025Clb=3.7m/s t=-68.2C h=-1.0% p=-1.0hPa 404.411 MHz Type=DFM17 ser=23001811 Radiosonde
N5LXND230018112023-03-30 18:32:1030.1941-92.2744725219862Clb=5.4m/s t=-68.9C h=-1.0% p=-1.0hPa 404.411 MHz Type=DFM17 ser=23001811 Radiosonde
N5LXND230018112023-03-30 18:31:3930.1936-92.2774992619692Clb=6.5m/s t=-69.0C h=-1.0% p=-1.0hPa 404.411 MHz Type=DFM17 ser=23001811 Radiosonde
N5LXND230018112023-03-30 18:31:0830.1939-92.2806732819520Clb=5.9m/s t=-69.4C h=-1.0% p=-1.0hPa 404.411 MHz Type=DFM17 ser=23001811 Radiosonde
N5LXND230018112023-03-30 18:30:3730.1933-92.28481035019357Clb=5.1m/s t=-69.3C h=-1.0% p=-1.0hPa 404.411 MHz Type=DFM17 ser=23001811 Radiosonde
N5LXND230018112023-03-30 18:30:0630.1933-92.28861107219197Clb=6.6m/s t=-69.6C h=-1.0% p=-1.0hPa 404.411 MHz Type=DFM17 ser=23001811 Radiosonde
N5LXND230018112023-03-30 18:29:3530.193-92.293676119021Clb=4.9m/s t=-68.8C h=-1.0% p=-1.0hPa 404.411 MHz Type=DFM17 ser=23001811 Radiosonde
N5LXND230018112023-03-30 18:29:0430.1919-92.2974575418868Clb=3.6m/s t=-69.5C h=-1.0% p=-1.0hPa 404.411 MHz Type=DFM17 ser=23001811 Radiosonde
N5LXND230018112023-03-30 18:28:3330.19-92.3016895018709Clb=4.7m/s t=-69.0C h=-1.0% p=-1.0hPa 404.411 MHz Type=DFM17 ser=23001811 Radiosonde
N5LXND230018112023-03-30 18:28:0230.1885-92.3055765718544Clb=7.5m/s t=-69.1C h=-1.0% p=-1.0hPa 404.411 MHz Type=DFM17 ser=23001811 Radiosonde
N5LXND230018112023-03-30 18:27:3130.1868-92.3095625618382Clb=5.6m/s t=-68.6C h=-1.0% p=-1.0hPa 404.411 MHz Type=DFM17 ser=23001811 Radiosonde
N5LXND230018112023-03-30 18:27:0030.1851-92.3134594418218Clb=5.6m/s t=-68.0C h=-1.0% p=-1.0hPa 404.411 MHz Type=DFM17 ser=23001811 Radiosonde
N5LXND230018112023-03-30 18:26:2830.1831-92.3176386318055Clb=5.3m/s t=-68.2C h=-1.0% p=-1.0hPa 404.411 MHz Type=DFM17 ser=23001811 Radiosonde
N5LXND230018112023-03-30 18:25:5730.1807-92.3218666117898Clb=5.9m/s t=-68.0C h=-1.0% p=-1.0hPa 404.411 MHz Type=DFM17 ser=23001811 Radiosonde
N5LXND230018112023-03-30 18:25:2630.179-92.3264706317737Clb=5.9m/s t=-67.7C h=-1.0% p=-1.0hPa 404.411 MHz Type=DFM17 ser=23001811 Radiosonde
N5LXND230018112023-03-30 18:24:5530.178-92.3324995717568Clb=1.3m/s t=-68.5C h=-1.0% p=-1.0hPa 404.411 MHz Type=DFM17 ser=23001811 Radiosonde
N5LXND230018112023-03-30 18:24:2430.1777-92.3394787017398Clb=3.6m/s t=-69.7C h=-1.0% p=-1.0hPa 404.411 MHz Type=DFM17 ser=23001811 Radiosonde
N5LXND230018112023-03-30 18:23:5330.1769-92.3474729617243Clb=4.1m/s t=-70.0C h=-1.0% p=-1.0hPa 404.411 MHz Type=DFM17 ser=23001811 Radiosonde
N5LXND230018112023-03-30 18:23:2230.1754-92.3557749617087Clb=5.8m/s t=-69.2C h=-1.0% p=-1.0hPa 404.411 MHz Type=DFM17 ser=23001811 Radiosonde
N5LXND230018112023-03-30 18:22:5130.1734-92.3638689616933Clb=6.3m/s t=-68.7C h=-1.0% p=-1.0hPa 404.411 MHz Type=DFM17 ser=23001811 Radiosonde
N5LXND230018112023-03-30 18:22:2030.1706-92.3726510016769Clb=5.4m/s t=-67.8C h=-1.0% p=-1.0hPa 404.411 MHz Type=DFM17 ser=23001811 Radiosonde
N5LXND230018112023-03-30 18:21:4930.1672-92.3794768316618Clb=4.2m/s t=-67.1C h=-1.0% p=-1.0hPa 404.411 MHz Type=DFM17 ser=23001811 Radiosonde
N5LXND230018112023-03-30 18:21:1830.1643-92.38727110416442Clb=5.6m/s t=-66.2C h=-1.0% p=-1.0hPa 404.411 MHz Type=DFM17 ser=23001811 Radiosonde
N5LXND230018112023-03-30 18:20:4730.1624-92.3961819416290Clb=4.0m/s t=-66.6C h=-1.0% p=-1.0hPa 404.411 MHz Type=DFM17 ser=23001811 Radiosonde
N5LXND230018112023-03-30 18:20:1630.1607-92.40527110916139Clb=3.3m/s t=-66.0C h=-1.0% p=-1.0hPa 404.411 MHz Type=DFM17 ser=23001811 Radiosonde
N5LXND230018112023-03-30 18:19:4530.1593-92.41558412215974Clb=6.8m/s t=-64.7C h=-1.0% p=-1.0hPa 404.411 MHz Type=DFM17 ser=23001811 Radiosonde
N5LXND230018112023-03-30 18:19:1430.1586-92.42549310915819Clb=5.0m/s t=-64.2C h=-1.0% p=-1.0hPa 404.411 MHz Type=DFM17 ser=23001811 Radiosonde
N5LXND230018112023-03-30 18:18:4330.1578-92.43668412615666Clb=4.6m/s t=-64.9C h=-1.0% p=-1.0hPa 404.411 MHz Type=DFM17 ser=23001811 Radiosonde
N5LXND230018112023-03-30 18:18:1230.1566-92.44827912215515Clb=7.3m/s t=-66.2C h=-1.0% p=-1.0hPa 404.411 MHz Type=DFM17 ser=23001811 Radiosonde
N5LXND230018112023-03-30 18:17:4030.1562-92.45929312215361Clb=3.6m/s t=-66.0C h=-1.0% p=-1.0hPa 404.411 MHz Type=DFM17 ser=23001811 Radiosonde
N5LXND230018112023-03-30 18:17:0930.1565-92.47029112415212Clb=6.0m/s t=-65.6C h=-1.0% p=-1.0hPa 404.411 MHz Type=DFM17 ser=23001811 Radiosonde
N5LXND230018112023-03-30 18:16:3830.1571-92.48269512815056Clb=5.6m/s t=-66.2C h=-1.0% p=-1.0hPa 404.411 MHz Type=DFM17 ser=23001811 Radiosonde
N5LXND230018112023-03-30 18:16:0730.1574-92.49469512814902Clb=5.4m/s t=-65.3C h=-1.0% p=-1.0hPa 404.411 MHz Type=DFM17 ser=23001811 Radiosonde
N5LXND230018112023-03-30 18:15:3630.157-92.50568711514748Clb=6.5m/s t=-64.8C h=-1.0% p=-1.0hPa 404.411 MHz Type=DFM17 ser=23001811 Radiosonde
N5LXND230018112023-03-30 18:15:0530.1563-92.51688511114590Clb=5.8m/s t=-63.5C h=-1.0% p=-1.0hPa 404.411 MHz Type=DFM17 ser=23001811 Radiosonde
N5LXND230018112023-03-30 18:14:3430.1557-92.52738212414446Clb=5.8m/s t=-62.7C h=-1.0% p=-1.0hPa 404.411 MHz Type=DFM17 ser=23001811 Radiosonde
N5LXND230018112023-03-30 18:14:0330.1554-92.53858712214298Clb=4.3m/s t=-62.0C h=-1.0% p=-1.0hPa 404.411 MHz Type=DFM17 ser=23001811 Radiosonde
N5LXND230018112023-03-30 18:13:3230.1557-92.54959112414149Clb=4.6m/s t=-61.6C h=-1.0% p=-1.0hPa 404.411 MHz Type=DFM17 ser=23001811 Radiosonde
N5LXND230018112023-03-30 18:13:0130.1574-92.56369013713950Clb=8.6m/s t=-62.2C h=-1.0% p=-1.0hPa 404.411 MHz Type=DFM17 ser=23001811 Radiosonde
N5LXND230018112023-03-30 18:12:3030.1587-92.57599718513766Clb=8.8m/s t=-63.3C h=-1.0% p=-1.0hPa 404.411 MHz Type=DFM17 ser=23001811 Radiosonde
N5LXND230018112023-03-30 18:11:5930.1611-92.59299620213614Clb=3.8m/s t=-63.0C h=-1.0% p=-1.0hPa 404.411 MHz Type=DFM17 ser=23001811 Radiosonde
N5LXND230018112023-03-30 18:11:2830.1639-92.611810220713469Clb=4.0m/s t=-62.5C h=-1.0% p=-1.0hPa 404.411 MHz Type=DFM17 ser=23001811 Radiosonde
N5LXND230018112023-03-30 18:10:5730.1667-92.63159722613331Clb=5.8m/s t=-61.6C h=-1.0% p=-1.0hPa 404.411 MHz Type=DFM17 ser=23001811 Radiosonde
N5LXND230018112023-03-30 18:10:2630.1693-92.65159823313195Clb=3.5m/s t=-60.7C h=-1.0% p=-1.0hPa 404.411 MHz Type=DFM17 ser=23001811 Radiosonde
N5LXND230018112023-03-30 18:09:5530.172-92.67199922213012Clb=6.2m/s t=-60.5C h=-1.0% p=-1.0hPa 404.411 MHz Type=DFM17 ser=23001811 Radiosonde
N5LXND230018112023-03-30 18:09:2430.1749-92.68929820912863Clb=5.1m/s t=-61.3C h=-1.0% p=-1.0hPa 404.411 MHz Type=DFM17 ser=23001811 Radiosonde
N5LXND230018112023-03-30 18:08:5230.1777-92.70759621512717Clb=4.3m/s t=-61.3C h=-1.0% p=-1.0hPa 404.411 MHz Type=DFM17 ser=23001811 Radiosonde
N5LXND230018112023-03-30 18:08:2130.1792-92.72479317812577Clb=4.8m/s t=-60.9C h=-1.0% p=-1.0hPa 404.411 MHz Type=DFM17 ser=23001811 Radiosonde
N5LXND230018112023-03-30 18:07:5030.1805-92.7429718112373Clb=5.3m/s t=-59.4C h=-1.0% p=-1.0hPa 404.411 MHz Type=DFM17 ser=23001811 Radiosonde
N5LXND230018112023-03-30 18:07:1930.1821-92.75759818312227Clb=4.9m/s t=-58.3C h=-1.0% p=-1.0hPa 404.411 MHz Type=DFM17 ser=23001811 Radiosonde
N5LXND230018112023-03-30 18:06:4830.1837-92.77349219312084Clb=4.6m/s t=-57.7C h=-1.0% p=-1.0hPa 404.411 MHz Type=DFM17 ser=23001811 Radiosonde
N5LXND230018112023-03-30 18:06:1730.1847-92.78869116511930Clb=6.0m/s t=-57.0C h=-1.0% p=-1.0hPa 404.411 MHz Type=DFM17 ser=23001811 Radiosonde
N5LXND230018112023-03-30 18:05:4630.1852-92.80319217211783Clb=5.1m/s t=-55.7C h=-1.0% p=-1.0hPa 404.411 MHz Type=DFM17 ser=23001811 Radiosonde
N5LXND230018112023-03-30 18:05:1530.1855-92.81829315711628Clb=4.9m/s t=-54.3C h=-1.0% p=-1.0hPa 404.411 MHz Type=DFM17 ser=23001811 Radiosonde
N5LXND230018112023-03-30 18:04:4430.1856-92.83239017811485Clb=5.0m/s t=-53.1C h=-1.0% p=-1.0hPa 404.411 MHz Type=DFM17 ser=23001811 Radiosonde
N5LXND230018112023-03-30 18:04:1330.1854-92.84688516511339Clb=3.3m/s t=-52.0C h=-1.0% p=-1.0hPa 404.411 MHz Type=DFM17 ser=23001811 Radiosonde
N5LXND230018112023-03-30 18:03:4230.1854-92.86099016711198Clb=4.1m/s t=-50.9C h=-1.0% p=-1.0hPa 404.411 MHz Type=DFM17 ser=23001811 Radiosonde
N5LXND230018112023-03-30 18:03:1130.1855-92.87449314811039Clb=6.3m/s t=-49.8C h=-1.0% p=-1.0hPa 404.411 MHz Type=DFM17 ser=23001811 Radiosonde
N5LXND230018112023-03-30 18:02:4030.1862-92.88769314610892Clb=6.5m/s t=-48.9C h=-1.0% p=-1.0hPa 404.411 MHz Type=DFM17 ser=23001811 Radiosonde
N5LXND230018112023-03-30 18:02:0930.1874-92.90069414610742Clb=4.1m/s t=-47.6C h=-1.0% p=-1.0hPa 404.411 MHz Type=DFM17 ser=23001811 Radiosonde
N5LXND230018112023-03-30 18:01:3830.1887-92.91329315410569Clb=5.4m/s t=-46.3C h=-1.0% p=-1.0hPa 404.411 MHz Type=DFM17 ser=23001811 Radiosonde
N5LXND230018112023-03-30 18:01:0730.1896-92.93239013910313Clb=4.9m/s t=-44.6C h=-1.0% p=-1.0hPa 404.411 MHz Type=DFM17 ser=23001811 Radiosonde
N5LXND230018112023-03-30 18:00:3630.1899-92.93789113110248Clb=4.1m/s t=-44.0C h=-1.0% p=-1.0hPa 404.411 MHz Type=DFM17 ser=23001811 Radiosonde
N5LXND230018112023-03-30 18:00:0530.1905-92.94949313010066Clb=6.9m/s t=-42.6C h=-1.0% p=-1.0hPa 404.411 MHz Type=DFM17 ser=23001811 Radiosonde
N5LXND230018112023-03-30 17:59:3330.1911-92.9606971099913Clb=5.0m/s t=-41.5C h=-1.0% p=-1.0hPa 404.411 MHz Type=DFM17 ser=23001811 Radiosonde
N5LXND230018112023-03-30 17:59:0230.192-92.9716971249766Clb=5.2m/s t=-40.3C h=-1.0% p=-1.0hPa 404.411 MHz Type=DFM17 ser=23001811 Radiosonde
N5LXND230018112023-03-30 17:58:3130.193-92.9825931229613Clb=3.5m/s t=-38.9C h=-1.0% p=-1.0hPa 404.411 MHz Type=DFM17 ser=23001811 Radiosonde
N5LXND230018112023-03-30 17:58:0030.1939-92.992871119473Clb=4.7m/s t=-37.8C h=-1.0% p=-1.0hPa 404.411 MHz Type=DFM17 ser=23001811 Radiosonde
N5LXND230018112023-03-30 17:57:2930.195-93.002795949316Clb=5.3m/s t=-36.6C h=-1.0% p=-1.0hPa 404.411 MHz Type=DFM17 ser=23001811 Radiosonde
N5LXND230018112023-03-30 17:56:5830.1956-93.011971009186Clb=4.7m/s t=-35.5C h=-1.0% p=-1.0hPa 404.411 MHz Type=DFM17 ser=23001811 Radiosonde
N5LXND230018112023-03-30 17:56:2730.1961-93.020281919040Clb=4.2m/s t=-34.5C h=-1.0% p=-1.0hPa 404.411 MHz Type=DFM17 ser=23001811 Radiosonde
N5LXND230018112023-03-30 17:55:5630.1967-93.028689878887Clb=4.2m/s t=-33.2C h=-1.0% p=-1.0hPa 404.411 MHz Type=DFM17 ser=23001811 Radiosonde
N5LXND230018112023-03-30 17:55:2530.1972-93.0372961068752Clb=5.9m/s t=-32.2C h=-1.0% p=-1.0hPa 404.411 MHz Type=DFM17 ser=23001811 Radiosonde
N5LXND230018112023-03-30 17:54:5430.1983-93.04895988542Clb=5.1m/s t=-30.5C h=-1.0% p=-1.0hPa 404.411 MHz Type=DFM17 ser=23001811 Radiosonde
N5LXND230018112023-03-30 17:54:2330.1989-93.0534101748437Clb=4.1m/s t=-29.7C h=-1.0% p=-1.0hPa 404.411 MHz Type=DFM17 ser=23001811 Radiosonde
N5LXND230018112023-03-30 17:53:5230.1998-93.061591988278Clb=3.9m/s t=-28.6C h=-1.0% p=-1.0hPa 404.411 MHz Type=DFM17 ser=23001811 Radiosonde
N5LXND230018112023-03-30 17:53:2130.2007-93.0696100838146Clb=4.7m/s t=-27.9C h=-1.0% p=-1.0hPa 404.411 MHz Type=DFM17 ser=23001811 Radiosonde
N5LXND230018112023-03-30 17:52:5030.2013-93.077489817987Clb=3.9m/s t=-26.6C h=-1.0% p=-1.0hPa 404.411 MHz Type=DFM17 ser=23001811 Radiosonde
N5LXND230018112023-03-30 17:52:1930.2022-93.084991727839Clb=7.3m/s t=-25.3C h=-1.0% p=-1.0hPa 404.411 MHz Type=DFM17 ser=23001811 Radiosonde
N5LXND230018112023-03-30 17:51:4730.2025-93.092796697668Clb=4.2m/s t=-23.8C h=-1.0% p=-1.0hPa 404.411 MHz Type=DFM17 ser=23001811 Radiosonde
N5LXND230018112023-03-30 17:51:1730.203-93.099898747527Clb=2.8m/s t=-22.7C h=-1.0% p=-1.0hPa 404.411 MHz Type=DFM17 ser=23001811 Radiosonde
N5LXND230018112023-03-30 17:50:4530.2033-93.106799677380Clb=5.7m/s t=-21.6C h=-1.0% p=-1.0hPa 404.411 MHz Type=DFM17 ser=23001811 Radiosonde
N5LXND230018112023-03-30 17:50:1430.2036-93.115185727216Clb=5.0m/s t=-20.8C h=-1.0% p=-1.0hPa 404.411 MHz Type=DFM17 ser=23001811 Radiosonde
N5LXND230018112023-03-30 17:49:4330.2036-93.120682837097Clb=5.3m/s t=-20.1C h=-1.0% p=-1.0hPa 404.411 MHz Type=DFM17 ser=23001811 Radiosonde
N5LXND230018112023-03-30 17:49:1230.2034-93.127683766931Clb=4.5m/s t=-18.9C h=-1.0% p=-1.0hPa 404.411 MHz Type=DFM17 ser=23001811 Radiosonde